• Join FlightAware (Why Join?)
  • Login
  • US Flag 
 
11:21AM EST


 

Airport Tracker/Info


-or-


 

Live Flight TrackerFlight Track Log ✈ SKW5550 ✈ 27-Jun-2013 ✈ KCOD - KDEN

Flight Track Log - Related Links

Times and Time Zones

All times are in EDT time to prevent confusion due to time zone crossing. See the SKW5550 flight status page for this flight to view local times or setup timezone preferences in your user account.

Time Position Orientation Groundspeed Altitude Reporting Facility
EDT Latitude Longitude Course Direction KTS MPH feet Rate Location/Type
08:24AM 44.3489 -108.8489 144° Southeast  Level Estimated
08:25AM 44.2632 -108.7618 144° Southeast  Level Estimated
08:26AM 44.1774 -108.6750 144° Southeast  Level Estimated
08:27AM 44.0801 -108.5770 144° Southeast  Level Estimated
08:27AM 44.4469 -108.8400 144° Southeast 262 302 14,800  Level Salt Lake Center
08:28AM 43.9828 -108.4792 144° Southeast  Level Estimated
08:28AM 44.3472 -108.8067 167° South 329 379 16,600  Level Salt Lake Center
08:29AM 43.8854 -108.3818 144° Southeast  Level Estimated
08:29AM 44.2617 -108.7556 157° South 338 389 17,700  Level Salt Lake Center
08:30AM 43.7878 -108.2848 144° Southeast  Level Estimated
08:30AM 44.1711 -108.7036 158° South 351 404 18,600  Level Salt Lake Center
08:31AM 43.6903 -108.1880 144° Southeast  Level Estimated
08:31AM 44.0769 -108.6494 158° South 364 419 19,500  Level Salt Lake Center
08:32AM 43.5926 -108.0916 144° Southeast  Level Estimated
08:32AM 43.9617 -108.5844 158° South 384 442 21,400  Level Salt Lake Center
08:33AM 43.4948 -107.9954 144° Southeast  Level Estimated
08:33AM 43.8681 -108.5303 157° South 383 441 22,600  Level Salt Lake Center
08:34AM 43.7686 -108.4742 158° South 398 458 23,400 840 Climbing Salt Lake Center
08:35AM 43.6631 -108.4150 158° South 402 463 24,300 1,020 Climbing Salt Lake Center
08:36AM 43.5439 -108.3472 158° South 413 475 25,500 900 Climbing Salt Lake Center
08:37AM 43.4436 -108.2825 155° Southeast 416 479 26,200 660 Climbing Salt Lake Center
08:38AM 43.3544 -108.1856 142° Southeast 424 488 26,900 360 Climbing Salt Lake Center
08:39AM 43.2453 -108.0706 142° Southeast 438 504 27,000  Climbing Salt Lake Center
08:40AM 43.1486 -107.9672 142° Southeast 453 521 27,000  Level Salt Lake Center
08:41AM 43.0497 -107.8644 143° Southeast 462 532 27,000  Level Salt Lake Center
08:42AM 42.9533 -107.7608 142° Southeast 461 531 27,000  Level Salt Lake Center
08:43AM 42.8428 -107.6467 143° Southeast 450 518 27,000  Level Salt Lake Center
08:44AM 42.7481 -107.5483 143° Southeast 448 516 27,000  Level Salt Lake Center
08:46AM 42.6542 -107.4519 143° Southeast 442 509 27,000  Level Salt Lake Center
08:47AM 42.5431 -107.3369 143° Southeast 447 514 27,000  Level Salt Lake Center
08:47AM 42.4933 -107.2853 143° Southeast 448 516 27,000  Level Denver Center
08:48AM 42.3981 -107.1889 143° Southeast 448 516 27,000  Level Denver Center
08:49AM 42.2867 -107.0753 143° Southeast 447 514 27,000  Level Denver Center
08:50AM 42.1928 -106.9781 142° Southeast 445 512 27,000  Level Denver Center
08:51AM 42.0806 -106.8667 144° Southeast 447 514 27,000  Level Denver Center
08:52AM 41.9864 -106.7700 143° Southeast 445 512 27,000  Level Denver Center
08:53AM 41.8894 -106.6739 144° Southeast 450 518 27,000  Level Denver Center
08:54AM 41.7786 -106.5625 143° Southeast 446 513 27,000  Level Denver Center
08:55AM 41.6719 -106.4661 146° Southeast 446 513 27,000  Level Denver Center
08:56AM 41.5636 -106.4169 161° South 433 498 27,000  Level Denver Center
08:57AM 41.4561 -106.3708 162° South 428 493 27,000  Level Denver Center
08:58AM 41.3297 -106.3161 162° South 428 493 27,000  Level Denver Center
08:59AM 41.2128 -106.2658 162° South 424 488 27,000  Level Denver Center
09:00AM 41.1167 -106.1861 148° Southeast 430 495 27,000  Level Denver Center
09:01AM 41.0181 -106.0894 144° Southeast 431 496 27,000  Level Denver Center
09:02AM 40.9272 -105.9975 143° Southeast 432 497 27,000  Level Denver Center
09:03AM 40.8300 -105.9022 143° Southeast 435 501 27,000  Level Denver Center
09:04AM 40.7339 -105.8056 143° Southeast 434 499 27,000  Level Denver Center
09:05AM 40.6378 -105.7125 144° Southeast 432 497 27,000 -300 Level Denver Center
09:06AM 40.5214 -105.5986 143° Southeast 434 499 26,500 -1,740 Descending Denver Center
09:07AM 40.4222 -105.5036 144° Southeast 440 506 23,500 -2,760 Descending Denver Center
09:08AM 40.3333 -105.4011 139° Southeast 418 481 20,900 -2,400 Descending Denver Center
09:09AM 40.2647 -105.2911 129° Southeast 378 435 18,700 -1,980 Descending Denver Center
09:11AM 40.1961 -105.1844 130° Southeast 360 414 16,900 -1,860 Descending Denver Center
09:12AM 40.1322 -105.0856 130° Southeast 354 407 15,000 -1,440 Descending Denver Center
09:13AM 40.0733 -104.9856 128° Southeast 347 399 14,000 -960 Descending Denver Center
09:14AM 40.0161 -104.8817 126° Southeast 352 405 13,100 -780 Descending Denver Center
09:15AM 39.9817 -104.7575 110° East 339 390 12,500 -840 Descending Denver Center
09:16AM 39.9772 -104.6431 93° East 310 357 11,400 -780 Descending Denver Center
09:17AM 39.9747 -104.5439 92° East 272 313 11,000 -600 Descending Denver Center
09:18AM 39.9689 -104.4525 95° East 256 295 10,300 -720 Descending Denver Center